sensor_id;sensor_type;location;lat;lon;timestamp;pressure;altitude;pressure_sealevel;temperature;humidity
56721;BME280;53183;47.412;18.884;2023-03-25T00:01:18;98338.25;;;14.30;68.39
56721;BME280;53183;47.412;18.884;2023-03-25T00:03:46;98344.69;;;14.28;68.82
56721;BME280;53183;47.412;18.884;2023-03-25T00:06:16;98343.00;;;14.27;68.98
56721;BME280;53183;47.412;18.884;2023-03-25T00:08:44;98342.91;;;14.28;69.00
56721;BME280;53183;47.412;18.884;2023-03-25T00:11:12;98337.84;;;14.25;69.15
56721;BME280;53183;47.412;18.884;2023-03-25T00:13:39;98340.94;;;14.30;69.18
56721;BME280;53183;47.412;18.884;2023-03-25T00:16:06;98347.50;;;14.26;69.49
56721;BME280;53183;47.412;18.884;2023-03-25T00:18:36;98345.81;;;14.25;69.44
56721;BME280;53183;47.412;18.884;2023-03-25T00:21:04;98354.75;;;14.24;69.56
56721;BME280;53183;47.412;18.884;2023-03-25T00:23:38;98355.59;;;14.25;69.67
56721;BME280;53183;47.412;18.884;2023-03-25T00:26:06;98359.25;;;14.34;69.35
56721;BME280;53183;47.412;18.884;2023-03-25T00:28:35;98360.97;;;14.35;69.19
56721;BME280;53183;47.412;18.884;2023-03-25T00:31:06;98348.91;;;14.30;69.44
56721;BME280;53183;47.412;18.884;2023-03-25T00:33:34;98355.19;;;14.29;69.82
56721;BME280;53183;47.412;18.884;2023-03-25T00:36:02;98353.53;;;14.28;69.93
56721;BME280;53183;47.412;18.884;2023-03-25T00:38:32;98352.38;;;14.31;70.17
56721;BME280;53183;47.412;18.884;2023-03-25T00:41:26;98350.16;;;14.26;70.56
56721;BME280;53183;47.412;18.884;2023-03-25T00:43:55;98351.41;;;14.22;71.01
56721;BME280;53183;47.412;18.884;2023-03-25T00:46:24;98352.19;;;14.13;71.66
56721;BME280;53183;47.412;18.884;2023-03-25T00:48:53;98345.19;;;14.12;72.16
56721;BME280;53183;47.412;18.884;2023-03-25T00:51:22;98347.09;;;14.00;72.96
56721;BME280;53183;47.412;18.884;2023-03-25T00:53:51;98349.63;;;14.02;72.95
56721;BME280;53183;47.412;18.884;2023-03-25T00:56:23;98346.00;;;14.03;73.01
56721;BME280;53183;47.412;18.884;2023-03-25T00:58:50;98347.94;;;14.01;73.19
56721;BME280;53183;47.412;18.884;2023-03-25T01:01:19;98338.69;;;13.95;73.40
56721;BME280;53183;47.412;18.884;2023-03-25T01:03:55;98346.19;;;13.90;73.72
56721;BME280;53183;47.412;18.884;2023-03-25T01:06:34;98346.09;;;14.01;73.35
56721;BME280;53183;47.412;18.884;2023-03-25T01:09:05;98347.50;;;13.96;73.70
56721;BME280;53183;47.412;18.884;2023-03-25T01:11:33;98359.88;;;13.86;74.44
56721;BME280;53183;47.412;18.884;2023-03-25T01:14:03;98352.44;;;13.79;75.33
56721;BME280;53183;47.412;18.884;2023-03-25T01:16:31;98354.87;;;13.71;76.26
56721;BME280;53183;47.412;18.884;2023-03-25T01:18:58;98349.44;;;13.52;77.55
56721;BME280;53183;47.412;18.884;2023-03-25T01:21:26;98346.59;;;13.44;78.24
56721;BME280;53183;47.412;18.884;2023-03-25T01:23:53;98356.31;;;13.33;78.98
56721;BME280;53183;47.412;18.884;2023-03-25T01:26:21;98357.97;;;13.34;80.23
56721;BME280;53183;47.412;18.884;2023-03-25T01:28:48;98353.75;;;13.32;80.94
56721;BME280;53183;47.412;18.884;2023-03-25T01:31:15;98355.84;;;13.28;82.08
56721;BME280;53183;47.412;18.884;2023-03-25T01:33:43;98360.19;;;13.29;83.25
56721;BME280;53183;47.412;18.884;2023-03-25T01:36:10;98359.22;;;13.30;83.89
56721;BME280;53183;47.412;18.884;2023-03-25T01:38:40;98363.81;;;13.17;85.45
56721;BME280;53183;47.412;18.884;2023-03-25T01:41:08;98356.84;;;13.05;86.63
56721;BME280;53183;47.412;18.884;2023-03-25T01:43:36;98349.03;;;13.03;87.19
56721;BME280;53183;47.412;18.884;2023-03-25T01:46:03;98359.41;;;13.06;86.83
56721;BME280;53183;47.412;18.884;2023-03-25T01:48:34;98363.97;;;13.04;86.81
56721;BME280;53183;47.412;18.884;2023-03-25T01:51:22;98365.81;;;12.93;87.19
56721;BME280;53183;47.412;18.884;2023-03-25T01:53:51;98370.53;;;12.89;87.69
56721;BME280;53183;47.412;18.884;2023-03-25T01:56:26;98372.72;;;12.84;87.89
56721;BME280;53183;47.412;18.884;2023-03-25T01:58:58;98368.16;;;12.75;89.26
56721;BME280;53183;47.412;18.884;2023-03-25T02:01:28;98368.69;;;12.57;91.00
56721;BME280;53183;47.412;18.884;2023-03-25T02:03:59;98381.81;;;12.48;92.63
56721;BME280;53183;47.412;18.884;2023-03-25T02:06:41;98384.47;;;12.48;93.66
56721;BME280;53183;47.412;18.884;2023-03-25T02:09:11;98383.63;;;12.25;95.78
56721;BME280;53183;47.412;18.884;2023-03-25T02:11:39;98362.91;;;12.18;97.11
56721;BME280;53183;47.412;18.884;2023-03-25T02:14:09;98375.78;;;12.12;98.51
56721;BME280;53183;47.412;18.884;2023-03-25T02:16:45;98382.41;;;11.95;100.00
56721;BME280;53183;47.412;18.884;2023-03-25T02:30:35;98370.97;;;11.59;100.00
56721;BME280;53183;47.412;18.884;2023-03-25T02:38:40;98356.00;;;11.36;100.00
56721;BME280;53183;47.412;18.884;2023-03-25T02:44:04;98356.22;;;11.33;100.00
56721;BME280;53183;47.412;18.884;2023-03-25T02:46:36;98347.22;;;11.35;100.00
56721;BME280;53183;47.412;18.884;2023-03-25T02:49:29;98343.47;;;11.38;100.00
56721;BME280;53183;47.412;18.884;2023-03-25T02:51:59;98340.00;;;11.37;100.00
56721;BME280;53183;47.412;18.884;2023-03-25T02:54:29;98350.72;;;11.36;100.00
56721;BME280;53183;47.412;18.884;2023-03-25T02:57:01;98347.31;;;11.34;100.00
56721;BME280;53183;47.412;18.884;2023-03-25T02:59:30;98349.22;;;11.32;100.00
56721;BME280;53183;47.412;18.884;2023-03-25T03:02:02;98356.78;;;11.25;100.00
56721;BME280;53183;47.412;18.884;2023-03-25T03:04:31;98349.47;;;11.28;100.00
56721;BME280;53183;47.412;18.884;2023-03-25T03:06:58;98344.53;;;11.24;100.00
56721;BME280;53183;47.412;18.884;2023-03-25T03:19:49;98370.22;;;10.87;100.00
56721;BME280;53183;47.412;18.884;2023-03-25T03:27:54;98377.25;;;10.62;100.00
56721;BME280;53183;47.412;18.884;2023-03-25T03:30:36;98372.53;;;10.54;100.00
56721;BME280;53183;47.412;18.884;2023-03-25T03:35:59;98381.50;;;10.52;100.00
56721;BME280;53183;47.412;18.884;2023-03-25T03:38:32;98384.06;;;10.53;100.00
56721;BME280;53183;47.412;18.884;2023-03-25T03:41:06;98391.56;;;10.47;100.00
56721;BME280;53183;47.412;18.884;2023-03-25T03:43:43;98389.66;;;10.36;100.00
56721;BME280;53183;47.412;18.884;2023-03-25T03:46:21;98390.53;;;10.37;100.00
56721;BME280;53183;47.412;18.884;2023-03-25T03:48:55;98388.81;;;10.36;100.00
56721;BME280;53183;47.412;18.884;2023-03-25T03:51:34;98393.59;;;10.30;100.00
56721;BME280;53183;47.412;18.884;2023-03-25T03:54:04;98402.16;;;10.34;100.00
56721;BME280;53183;47.412;18.884;2023-03-25T03:56:38;98407.53;;;10.32;100.00
56721;BME280;53183;47.412;18.884;2023-03-25T03:59:13;98409.53;;;10.29;100.00
56721;BME280;53183;47.412;18.884;2023-03-25T04:01:43;98414.72;;;10.30;100.00
56721;BME280;53183;47.412;18.884;2023-03-25T04:04:19;98420.84;;;10.31;100.00
56721;BME280;53183;47.412;18.884;2023-03-25T04:07:15;98421.91;;;10.28;100.00
56721;BME280;53183;47.412;18.884;2023-03-25T04:12:17;98418.00;;;10.34;100.00
56721;BME280;53183;47.412;18.884;2023-03-25T04:14:46;98418.00;;;10.34;100.00
56721;BME280;53183;47.412;18.884;2023-03-25T04:17:13;98427.59;;;10.35;100.00
56721;BME280;53183;47.412;18.884;2023-03-25T04:19:40;98431.41;;;10.31;100.00
56721;BME280;53183;47.412;18.884;2023-03-25T04:22:07;98426.75;;;10.35;100.00
56721;BME280;53183;47.412;18.884;2023-03-25T04:24:34;98428.56;;;10.34;100.00
56721;BME280;53183;47.412;18.884;2023-03-25T04:27:03;98418.22;;;10.31;100.00
56721;BME280;53183;47.412;18.884;2023-03-25T04:29:31;98428.78;;;10.31;100.00
56721;BME280;53183;47.412;18.884;2023-03-25T04:32:00;98429.41;;;10.35;100.00
56721;BME280;53183;47.412;18.884;2023-03-25T04:34:27;98427.59;;;10.35;100.00
56721;BME280;53183;47.412;18.884;2023-03-25T04:36:55;98431.00;;;10.37;100.00
56721;BME280;53183;47.412;18.884;2023-03-25T04:39:24;98438.16;;;10.35;100.00
56721;BME280;53183;47.412;18.884;2023-03-25T04:41:51;98440.06;;;10.33;100.00
56721;BME280;53183;47.412;18.884;2023-03-25T04:44:29;98448.22;;;10.30;100.00
56721;BME280;53183;47.412;18.884;2023-03-25T04:47:00;98445.56;;;10.30;100.00
56721;BME280;53183;47.412;18.884;2023-03-25T04:49:28;98449.25;;;10.40;100.00
56721;BME280;53183;47.412;18.884;2023-03-25T04:51:56;98452.53;;;10.31;100.00
56721;BME280;53183;47.412;18.884;2023-03-25T04:54:23;98457.81;;;10.31;100.00
56721;BME280;53183;47.412;18.884;2023-03-25T04:56:51;98462.97;;;10.32;100.00
56721;BME280;53183;47.412;18.884;2023-03-25T04:59:19;98461.09;;;10.35;100.00
56721;BME280;53183;47.412;18.884;2023-03-25T05:01:47;98468.25;;;10.32;100.00
56721;BME280;53183;47.412;18.884;2023-03-25T05:04:16;98469.56;;;10.27;100.00
56721;BME280;53183;47.412;18.884;2023-03-25T05:06:46;98469.44;;;10.28;100.00
56721;BME280;53183;47.412;18.884;2023-03-25T05:09:16;98469.59;;;10.25;100.00
56721;BME280;53183;47.412;18.884;2023-03-25T05:11:45;98478.72;;;10.34;100.00
56721;BME280;53183;47.412;18.884;2023-03-25T05:14:15;98481.69;;;10.29;100.00
56721;BME280;53183;47.412;18.884;2023-03-25T05:16:43;98488.56;;;10.32;100.00
56721;BME280;53183;47.412;18.884;2023-03-25T05:19:12;98489.25;;;10.21;100.00
56721;BME280;53183;47.412;18.884;2023-03-25T05:21:41;98491.78;;;10.23;100.00
56721;BME280;53183;47.412;18.884;2023-03-25T05:24:10;98489.25;;;10.21;100.00
56721;BME280;53183;47.412;18.884;2023-03-25T05:26:40;98495.59;;;10.19;100.00
56721;BME280;53183;47.412;18.884;2023-03-25T05:29:11;98488.50;;;10.19;100.00
56721;BME280;53183;47.412;18.884;2023-03-25T05:31:41;98482.19;;;10.22;100.00
56721;BME280;53183;47.412;18.884;2023-03-25T05:34:11;98496.34;;;10.21;100.00
56721;BME280;53183;47.412;18.884;2023-03-25T05:36:41;98492.09;;;10.18;100.00
56721;BME280;53183;47.412;18.884;2023-03-25T05:39:08;98484.94;;;10.20;100.00
56721;BME280;53183;47.412;18.884;2023-03-25T05:41:37;98484.94;;;10.20;100.00
56721;BME280;53183;47.412;18.884;2023-03-25T05:44:09;98483.63;;;10.13;100.00
56721;BME280;53183;47.412;18.884;2023-03-25T05:46:36;98490.50;;;10.16;100.00
56721;BME280;53183;47.412;18.884;2023-03-25T05:49:03;98484.37;;;10.02;100.00
56721;BME280;53183;47.412;18.884;2023-03-25T05:51:33;98497.56;;;10.02;100.00
56721;BME280;53183;47.412;18.884;2023-03-25T05:54:04;98493.69;;;10.08;100.00
56721;BME280;53183;47.412;18.884;2023-03-25T05:56:38;98490.81;;;9.98;100.00
56721;BME280;53183;47.412;18.884;2023-03-25T05:59:06;98497.56;;;10.02;100.00
56721;BME280;53183;47.412;18.884;2023-03-25T06:01:34;98499.47;;;10.13;100.00
56721;BME280;53183;47.412;18.884;2023-03-25T06:04:05;98504.25;;;10.08;100.00
56721;BME280;53183;47.412;18.884;2023-03-25T06:06:36;98511.12;;;10.10;100.00
56721;BME280;53183;47.412;18.884;2023-03-25T06:09:03;98511.12;;;10.10;100.00
56721;BME280;53183;47.412;18.884;2023-03-25T06:11:31;98522.41;;;10.13;100.00
56721;BME280;53183;47.412;18.884;2023-03-25T06:14:05;98508.59;;;10.22;100.00
56721;BME280;53183;47.412;18.884;2023-03-25T06:16:33;98507.63;;;10.23;100.00
56721;BME280;53183;47.412;18.884;2023-03-25T06:19:02;98511.81;;;10.27;100.00
56721;BME280;53183;47.412;18.884;2023-03-25T06:21:32;98502.72;;;10.31;100.00
56721;BME280;53183;47.412;18.884;2023-03-25T06:23:59;98501.75;;;10.32;100.00
56721;BME280;53183;47.412;18.884;2023-03-25T06:26:30;98507.03;;;10.32;100.00
56721;BME280;53183;47.412;18.884;2023-03-25T06:28:59;98510.62;;;10.44;100.00
56721;BME280;53183;47.412;18.884;2023-03-25T06:31:27;98514.97;;;10.45;100.00
56721;BME280;53183;47.412;18.884;2023-03-25T06:33:54;98521.22;;;10.44;100.00
56721;BME280;53183;47.412;18.884;2023-03-25T06:36:23;98523.53;;;10.48;100.00
56721;BME280;53183;47.412;18.884;2023-03-25T06:38:52;98518.44;;;10.58;100.00
56721;BME280;53183;47.412;18.884;2023-03-25T06:41:20;98532.06;;;10.65;100.00
56721;BME280;53183;47.412;18.884;2023-03-25T06:43:48;98528.81;;;10.74;100.00
56721;BME280;53183;47.412;18.884;2023-03-25T06:46:16;98528.66;;;10.88;100.00
56721;BME280;53183;47.412;18.884;2023-03-25T06:48:47;98527.50;;;10.92;100.00
56721;BME280;53183;47.412;18.884;2023-03-25T06:51:15;98533.72;;;11.04;100.00
56721;BME280;53183;47.412;18.884;2023-03-25T06:53:42;98529.47;;;11.14;100.00
56721;BME280;53183;47.412;18.884;2023-03-25T06:56:09;98522.56;;;11.24;100.00
56721;BME280;53183;47.412;18.884;2023-03-25T06:58:37;98529.63;;;11.61;100.00
56721;BME280;53183;47.412;18.884;2023-03-25T07:01:04;98542.47;;;11.78;99.58
56721;BME280;53183;47.412;18.884;2023-03-25T07:03:35;98535.50;;;12.01;96.36
56721;BME280;53183;47.412;18.884;2023-03-25T07:06:04;98538.59;;;12.30;95.79
56721;BME280;53183;47.412;18.884;2023-03-25T07:08:32;98547.28;;;12.32;95.39
56721;BME280;53183;47.412;18.884;2023-03-25T07:11:06;98550.06;;;12.53;94.07
56721;BME280;53183;47.412;18.884;2023-03-25T07:13:33;98547.47;;;12.64;94.53
56721;BME280;53183;47.412;18.884;2023-03-25T07:16:01;98550.94;;;12.65;95.29
56721;BME280;53183;47.412;18.884;2023-03-25T07:18:29;98544.72;;;12.77;92.61
56721;BME280;53183;47.412;18.884;2023-03-25T07:20:57;98550.47;;;12.82;92.49
56721;BME280;53183;47.412;18.884;2023-03-25T07:23:24;98558.06;;;12.64;92.07
56721;BME280;53183;47.412;18.884;2023-03-25T07:25:52;98556.72;;;12.48;93.65
56721;BME280;53183;47.412;18.884;2023-03-25T07:28:19;98561.13;;;12.36;93.32
56721;BME280;53183;47.412;18.884;2023-03-25T07:30:47;98563.09;;;12.45;93.23
56721;BME280;53183;47.412;18.884;2023-03-25T07:33:14;98568.34;;;12.34;94.20
56721;BME280;53183;47.412;18.884;2023-03-25T07:35:42;98567.41;;;12.35;92.97
56721;BME280;53183;47.412;18.884;2023-03-25T07:38:09;98559.00;;;12.52;91.76
56721;BME280;53183;47.412;18.884;2023-03-25T07:40:36;98549.97;;;12.66;91.80
56721;BME280;53183;47.412;18.884;2023-03-25T07:43:04;98552.84;;;12.63;90.28
56721;BME280;53183;47.412;18.884;2023-03-25T07:45:32;98540.94;;;12.80;90.83
56721;BME280;53183;47.412;18.884;2023-03-25T07:48:19;98552.66;;;13.33;88.54
56721;BME280;53183;47.412;18.884;2023-03-25T07:50:50;98546.59;;;13.54;86.82
56721;BME280;53183;47.412;18.884;2023-03-25T07:53:18;98539.66;;;14.06;84.35
56721;BME280;53183;47.412;18.884;2023-03-25T07:55:46;98535.25;;;14.37;82.75
56721;BME280;53183;47.412;18.884;2023-03-25T07:58:14;98535.19;;;15.00;78.88
56721;BME280;53183;47.412;18.884;2023-03-25T08:00:41;98544.63;;;15.54;76.83
56721;BME280;53183;47.412;18.884;2023-03-25T08:03:11;98545.56;;;15.34;75.67
56721;BME280;53183;47.412;18.884;2023-03-25T08:05:44;98544.91;;;15.01;75.78
56721;BME280;53183;47.412;18.884;2023-03-25T08:08:12;98554.97;;;14.76;75.59
56721;BME280;53183;47.412;18.884;2023-03-25T08:10:41;98548.84;;;14.55;75.19
56721;BME280;53183;47.412;18.884;2023-03-25T08:13:10;98548.81;;;14.34;76.97
56721;BME280;53183;47.412;18.884;2023-03-25T08:15:38;98559.75;;;14.41;73.42
56721;BME280;53183;47.412;18.884;2023-03-25T08:18:06;98560.56;;;14.31;74.17
56721;BME280;53183;47.412;18.884;2023-03-25T08:20:34;98547.97;;;14.75;72.93
56721;BME280;53183;47.412;18.884;2023-03-25T08:23:02;98552.00;;;14.70;73.03
56721;BME280;53183;47.412;18.884;2023-03-25T08:25:30;98559.72;;;14.94;71.65
56721;BME280;53183;47.412;18.884;2023-03-25T08:27:57;98548.53;;;15.10;70.48
56721;BME280;53183;47.412;18.884;2023-03-25T08:30:24;98542.78;;;15.45;70.82
56721;BME280;53183;47.412;18.884;2023-03-25T08:32:52;98539.41;;;15.43;69.99
56721;BME280;53183;47.412;18.884;2023-03-25T08:35:22;98540.94;;;15.36;69.51
56721;BME280;53183;47.412;18.884;2023-03-25T08:37:50;98543.94;;;15.62;69.34
56721;BME280;53183;47.412;18.884;2023-03-25T08:40:17;98538.25;;;15.66;68.49
56721;BME280;53183;47.412;18.884;2023-03-25T08:42:45;98535.19;;;16.00;67.48
56721;BME280;53183;47.412;18.884;2023-03-25T08:45:13;98536.00;;;15.91;65.61
56721;BME280;53183;47.412;18.884;2023-03-25T08:47:42;98535.31;;;15.89;65.73
56721;BME280;53183;47.412;18.884;2023-03-25T08:50:10;98546.69;;;16.01;65.10
56721;BME280;53183;47.412;18.884;2023-03-25T08:52:37;98547.63;;;16.38;65.15
56721;BME280;53183;47.412;18.884;2023-03-25T08:55:05;98550.75;;;16.24;63.71
56721;BME280;53183;47.412;18.884;2023-03-25T08:57:38;98543.56;;;16.34;65.96
56721;BME280;53183;47.412;18.884;2023-03-25T09:00:06;98539.66;;;16.29;64.15
56721;BME280;53183;47.412;18.884;2023-03-25T09:02:40;98541.06;;;15.94;63.94
56721;BME280;53183;47.412;18.884;2023-03-25T09:05:11;98539.41;;;15.93;64.03
56721;BME280;53183;47.412;18.884;2023-03-25T09:07:39;98536.28;;;16.17;64.22
56721;BME280;53183;47.412;18.884;2023-03-25T09:10:06;98539.09;;;16.15;63.68
56721;BME280;53183;47.412;18.884;2023-03-25T09:12:34;98542.19;;;15.91;65.94
56721;BME280;53183;47.412;18.884;2023-03-25T09:15:01;98543.47;;;16.07;65.58
56721;BME280;53183;47.412;18.884;2023-03-25T09:17:29;98543.16;;;16.39;65.26
56721;BME280;53183;47.412;18.884;2023-03-25T09:19:56;98551.50;;;16.83;62.49
56721;BME280;53183;47.412;18.884;2023-03-25T09:22:25;98549.16;;;17.07;63.35
56721;BME280;53183;47.412;18.884;2023-03-25T09:24:52;98547.94;;;17.29;61.54
56721;BME280;53183;47.412;18.884;2023-03-25T09:27:19;98546.78;;;17.42;61.08
56721;BME280;53183;47.412;18.884;2023-03-25T09:29:47;98547.56;;;17.52;60.33
56721;BME280;53183;47.412;18.884;2023-03-25T09:32:14;98539.75;;;17.86;58.22
56721;BME280;53183;47.412;18.884;2023-03-25T09:34:41;98542.59;;;17.57;56.55
56721;BME280;53183;47.412;18.884;2023-03-25T09:37:10;98546.03;;;17.22;61.37
56721;BME280;53183;47.412;18.884;2023-03-25T09:39:37;98539.59;;;17.42;59.79
56721;BME280;53183;47.412;18.884;2023-03-25T09:45:16;98538.34;;;17.37;60.45
56721;BME280;53183;47.412;18.884;2023-03-25T09:47:55;98543.38;;;17.77;56.09
56721;BME280;53183;47.412;18.884;2023-03-25T09:50:25;98546.56;;;17.80;57.12
56721;BME280;53183;47.412;18.884;2023-03-25T09:55:35;98552.34;;;17.48;55.54
56721;BME280;53183;47.412;18.884;2023-03-25T10:06:56;98560.66;;;16.51;60.37
56721;BME280;53183;47.412;18.884;2023-03-25T10:12:25;98556.31;;;16.60;63.49
56721;BME280;53183;47.412;18.884;2023-03-25T10:15:11;98556.09;;;16.91;58.48
56721;BME280;53183;47.412;18.884;2023-03-25T10:20:50;98562.19;;;16.73;58.42
56721;BME280;53183;47.412;18.884;2023-03-25T10:23:41;98563.88;;;16.55;60.23
56721;BME280;53183;47.412;18.884;2023-03-25T10:26:41;98562.63;;;16.69;58.48
56721;BME280;53183;47.412;18.884;2023-03-25T10:29:14;98552.53;;;17.37;58.48
56721;BME280;53183;47.412;18.884;2023-03-25T10:31:53;98558.53;;;17.49;55.74
56721;BME280;53183;47.412;18.884;2023-03-25T10:34:41;98553.63;;;17.72;53.62
56721;BME280;53183;47.412;18.884;2023-03-25T10:37:17;98553.66;;;17.90;52.36
56721;BME280;53183;47.412;18.884;2023-03-25T10:39:47;98551.94;;;17.71;52.08
56721;BME280;53183;47.412;18.884;2023-03-25T10:42:26;98549.53;;;17.50;53.06
56721;BME280;53183;47.412;18.884;2023-03-25T10:44:57;98553.19;;;17.49;51.29
56721;BME280;53183;47.412;18.884;2023-03-25T10:47:30;98556.62;;;17.41;51.18
56721;BME280;53183;47.412;18.884;2023-03-25T10:49:59;98563.31;;;17.73;51.97
56721;BME280;53183;47.412;18.884;2023-03-25T10:52:27;98558.41;;;17.96;49.80
56721;BME280;53183;47.412;18.884;2023-03-25T10:54:55;98560.69;;;18.09;48.69
56721;BME280;53183;47.412;18.884;2023-03-25T10:57:27;98563.50;;;17.89;48.76
56721;BME280;53183;47.412;18.884;2023-03-25T11:00:15;98557.81;;;17.74;50.85
56721;BME280;53183;47.412;18.884;2023-03-25T11:02:46;98564.12;;;17.55;51.26
56721;BME280;53183;47.412;18.884;2023-03-25T11:05:17;98557.47;;;17.42;51.61
56721;BME280;53183;47.412;18.884;2023-03-25T11:07:49;98561.84;;;17.05;51.82
56721;BME280;53183;47.412;18.884;2023-03-25T11:10:19;98560.72;;;17.08;51.68
56721;BME280;53183;47.412;18.884;2023-03-25T11:12:49;98556.25;;;16.99;50.53
56721;BME280;53183;47.412;18.884;2023-03-25T11:15:30;98558.38;;;17.23;49.28
56721;BME280;53183;47.412;18.884;2023-03-25T11:18:10;98566.69;;;17.20;48.23
56721;BME280;53183;47.412;18.884;2023-03-25T11:20:45;98560.06;;;17.24;47.83
56721;BME280;53183;47.412;18.884;2023-03-25T11:23:35;98572.94;;;17.38;48.82
56721;BME280;53183;47.412;18.884;2023-03-25T11:26:24;98577.09;;;17.13;49.69
56721;BME280;53183;47.412;18.884;2023-03-25T11:29:01;98572.28;;;16.89;50.45
56721;BME280;53183;47.412;18.884;2023-03-25T11:31:35;98591.81;;;16.90;49.34
56721;BME280;53183;47.412;18.884;2023-03-25T11:41:59;98578.78;;;16.48;48.22
56721;BME280;53183;47.412;18.884;2023-03-25T11:44:36;98578.38;;;16.33;48.91
56721;BME280;53183;47.412;18.884;2023-03-25T11:47:06;98577.94;;;16.37;50.07
56721;BME280;53183;47.412;18.884;2023-03-25T11:49:38;98585.28;;;16.26;49.66
56721;BME280;53183;47.412;18.884;2023-03-25T11:52:13;98567.28;;;16.37;50.53
56721;BME280;53183;47.412;18.884;2023-03-25T11:54:41;98580.03;;;16.53;50.71
56721;BME280;53183;47.412;18.884;2023-03-25T11:57:19;98571.19;;;16.62;49.55
56721;BME280;53183;47.412;18.884;2023-03-25T11:59:49;98571.50;;;16.30;49.86
56721;BME280;53183;47.412;18.884;2023-03-25T12:02:35;98569.84;;;16.20;51.22
56721;BME280;53183;47.412;18.884;2023-03-25T12:07:46;98575.78;;;15.63;51.16
56721;BME280;53183;47.412;18.884;2023-03-25T12:10:26;98565.09;;;15.54;51.77
56721;BME280;53183;47.412;18.884;2023-03-25T12:13:11;98550.59;;;15.77;51.82
56721;BME280;53183;47.412;18.884;2023-03-25T12:24:42;98545.00;;;15.40;50.80
56721;BME280;53183;47.412;18.884;2023-03-25T12:33:16;98527.81;;;15.54;50.77
56721;BME280;53183;47.412;18.884;2023-03-25T12:43:47;98510.06;;;15.74;47.58
56721;BME280;53183;47.412;18.884;2023-03-25T12:58:01;98505.81;;;15.61;46.07
56721;BME280;53183;47.412;18.884;2023-03-25T13:06:29;98495.25;;;15.21;46.83
56721;BME280;53183;47.412;18.884;2023-03-25T13:09:19;98504.91;;;15.32;46.49
56721;BME280;53183;47.412;18.884;2023-03-25T13:17:25;98510.50;;;15.29;45.88
56721;BME280;53183;47.412;18.884;2023-03-25T13:19:58;98504.06;;;15.21;46.67
56721;BME280;53183;47.412;18.884;2023-03-25T13:22:31;98505.44;;;15.16;44.76
56721;BME280;53183;47.412;18.884;2023-03-25T13:25:02;98505.19;;;15.29;45.32
56721;BME280;53183;47.412;18.884;2023-03-25T13:27:38;98504.91;;;15.32;44.89
56721;BME280;53183;47.412;18.884;2023-03-25T13:30:16;98511.59;;;15.16;45.17
56721;BME280;53183;47.412;18.884;2023-03-25T13:32:54;98504.72;;;15.04;45.65
56721;BME280;53183;47.412;18.884;2023-03-25T13:35:44;98503.00;;;15.03;45.23
56721;BME280;53183;47.412;18.884;2023-03-25T13:38:18;98498.03;;;15.19;45.72
56721;BME280;53183;47.412;18.884;2023-03-25T13:41:16;98500.06;;;15.06;45.06
56721;BME280;53183;47.412;18.884;2023-03-25T13:43:53;98506.50;;;14.94;46.30
56721;BME280;53183;47.412;18.884;2023-03-25T13:46:35;98503.44;;;14.98;46.49
56721;BME280;53183;47.412;18.884;2023-03-25T13:49:17;98500.72;;;14.89;46.53
56721;BME280;53183;47.412;18.884;2023-03-25T13:51:47;98495.66;;;14.86;47.10
56721;BME280;53183;47.412;18.884;2023-03-25T13:54:34;98495.84;;;14.94;47.84
56721;BME280;53183;47.412;18.884;2023-03-25T14:02:25;98508.56;;;14.39;48.05
56721;BME280;53183;47.412;18.884;2023-03-25T14:13:40;98508.94;;;14.34;48.65
56721;BME280;53183;47.412;18.884;2023-03-25T14:16:13;98513.72;;;14.40;47.05
56721;BME280;53183;47.412;18.884;2023-03-25T14:18:43;98509.81;;;14.35;47.62
56721;BME280;53183;47.412;18.884;2023-03-25T14:21:31;98508.88;;;14.24;46.94
56721;BME280;53183;47.412;18.884;2023-03-25T14:26:47;98497.16;;;14.27;48.16
56721;BME280;53183;47.412;18.884;2023-03-25T14:29:40;98504.53;;;14.44;46.26
56721;BME280;53183;47.412;18.884;2023-03-25T14:34:35;98498.87;;;14.38;47.83
56721;BME280;53183;47.412;18.884;2023-03-25T14:44:35;98490.16;;;14.26;46.53
56721;BME280;53183;47.412;18.884;2023-03-25T14:49:52;98495.06;;;14.30;46.22
56721;BME280;53183;47.412;18.884;2023-03-25T14:55:21;98493.03;;;14.44;43.50
56721;BME280;53183;47.412;18.884;2023-03-25T14:58:13;98506.59;;;14.41;43.45
56721;BME280;53183;47.412;18.884;2023-03-25T15:00:50;98494.13;;;14.31;42.27
56721;BME280;53183;47.412;18.884;2023-03-25T15:03:20;98494.94;;;14.11;43.25
56721;BME280;53183;47.412;18.884;2023-03-25T15:05:54;98497.44;;;13.92;43.82
56721;BME280;53183;47.412;18.884;2023-03-25T15:08:34;98497.16;;;14.06;44.59
56721;BME280;53183;47.412;18.884;2023-03-25T15:13:35;98511.47;;;14.15;44.35
56721;BME280;53183;47.412;18.884;2023-03-25T15:16:18;98508.63;;;14.06;45.03
56721;BME280;53183;47.412;18.884;2023-03-25T15:21:15;98505.63;;;14.00;45.27
56721;BME280;53183;47.412;18.884;2023-03-25T15:26:44;98509.94;;;14.12;45.86
56721;BME280;53183;47.412;18.884;2023-03-25T15:32:39;98496.66;;;14.12;44.75
56721;BME280;53183;47.412;18.884;2023-03-25T15:41:15;98497.16;;;14.06;46.23
56721;BME280;53183;47.412;18.884;2023-03-25T15:54:44;98489.44;;;13.38;48.26
56721;BME280;53183;47.412;18.884;2023-03-25T15:57:33;98486.09;;;13.36;47.80
56721;BME280;53183;47.412;18.884;2023-03-25T16:00:07;98487.59;;;13.50;46.69
56721;BME280;53183;47.412;18.884;2023-03-25T16:05:29;98482.97;;;13.64;46.26
56721;BME280;53183;47.412;18.884;2023-03-25T16:07:58;98482.38;;;13.60;45.89
56721;BME280;53183;47.412;18.884;2023-03-25T16:10:32;98483.87;;;13.42;45.54
56721;BME280;53183;47.412;18.884;2023-03-25T16:13:15;98484.47;;;13.45;45.83